createdAt,value
2023-03-02T00:00:35.559Z,56.40
2023-03-02T00:01:53.532Z,56.34
2023-03-02T00:03:04.108Z,56.43
2023-03-02T00:05:32.971Z,56.63
2023-03-02T00:06:42.209Z,56.79
2023-03-02T00:07:51.926Z,56.79
2023-03-02T00:09:02.631Z,56.64
2023-03-02T00:10:12.332Z,56.75
2023-03-02T00:11:22.009Z,56.68
2023-03-02T00:12:34.069Z,56.69
2023-03-02T00:13:43.805Z,56.83
2023-03-02T00:14:52.443Z,56.92
2023-03-02T00:16:01.154Z,56.89
2023-03-02T00:17:13.221Z,56.97
2023-03-02T00:18:24.127Z,57.26
2023-03-02T00:19:33.088Z,57.38
2023-03-02T00:21:57.858Z,57.47
2023-03-02T00:23:07.085Z,57.69
2023-03-02T00:24:16.885Z,57.79
2023-03-02T00:25:26.002Z,57.72
2023-03-02T00:26:36.279Z,57.64
2023-03-02T00:27:45.470Z,57.73
2023-03-02T00:28:53.997Z,57.74
2023-03-02T00:30:04.221Z,57.82
2023-03-02T00:31:13.284Z,57.89
2023-03-02T00:32:22.667Z,57.90
2023-03-02T00:33:32.723Z,57.93
2023-03-02T00:34:42.285Z,57.68
2023-03-02T00:35:51.877Z,57.74
2023-03-02T00:37:01.673Z,57.78
2023-03-02T00:38:11.178Z,57.90
2023-03-02T00:39:20.596Z,58.07
2023-03-02T00:40:30.329Z,58.56
2023-03-02T00:41:39.782Z,58.72
2023-03-02T00:42:48.686Z,58.72
2023-03-02T00:43:58.096Z,58.61
2023-03-02T00:45:07.795Z,58.68
2023-03-02T00:46:21.615Z,58.75
2023-03-02T00:47:32.619Z,58.43
2023-03-02T00:48:42.886Z,58.40
2023-03-02T00:49:52.396Z,58.51
2023-03-02T00:52:17.067Z,58.41
2023-03-02T00:53:26.206Z,58.44
2023-03-02T00:54:35.534Z,58.39
2023-03-02T00:55:53.235Z,58.46
2023-03-02T00:57:03.271Z,58.34
2023-03-02T00:58:13.031Z,58.25
2023-03-02T00:59:26.347Z,58.25
2023-03-02T01:00:38.060Z,58.43
2023-03-02T01:01:50.833Z,58.48
2023-03-02T01:03:00.815Z,58.36
2023-03-02T01:04:09.508Z,58.25
2023-03-02T01:06:33.575Z,58.29
2023-03-02T01:07:43.959Z,58.32
2023-03-02T01:08:52.613Z,58.46
2023-03-02T01:10:01.650Z,58.57
2023-03-02T01:11:20.906Z,58.34
2023-03-02T01:12:29.549Z,58.17
2023-03-02T01:13:37.962Z,57.99
2023-03-02T01:14:50.728Z,58.15
2023-03-02T01:16:03.198Z,58.10
2023-03-02T01:17:13.029Z,57.90
2023-03-02T01:19:39.610Z,57.91
2023-03-02T01:20:49.237Z,57.94
2023-03-02T01:21:59.052Z,57.97
2023-03-02T01:23:08.585Z,58.13
2023-03-02T01:24:19.312Z,58.06
2023-03-02T01:25:28.465Z,57.83
2023-03-02T01:26:38.855Z,58.06
2023-03-02T01:27:48.001Z,58.11
2023-03-02T01:28:57.323Z,57.85
2023-03-02T01:31:42.658Z,57.83
2023-03-02T01:32:51.745Z,57.99
2023-03-02T01:34:00.586Z,58.04
2023-03-02T01:35:09.941Z,57.86
2023-03-02T01:36:19.288Z,57.70
2023-03-02T01:37:29.063Z,57.48
2023-03-02T01:38:38.788Z,57.67
2023-03-02T01:39:47.675Z,57.67
2023-03-02T01:40:57.101Z,57.63
2023-03-02T01:43:23.956Z,57.80
2023-03-02T01:46:09.111Z,57.73
2023-03-02T01:49:00.544Z,57.60
2023-03-02T01:50:20.755Z,57.69
2023-03-02T01:51:34.464Z,57.82
2023-03-02T01:52:45.943Z,57.98
2023-03-02T01:54:05.150Z,57.97
2023-03-02T01:55:17.805Z,57.98
2023-03-02T01:56:30.745Z,58.16
2023-03-02T01:57:45.252Z,58.17
2023-03-02T01:58:59.554Z,58.28
2023-03-02T02:00:15.483Z,58.25
2023-03-02T02:01:25.372Z,58.18
2023-03-02T02:02:36.115Z,58.14
2023-03-02T02:03:49.019Z,58.21
2023-03-02T02:04:59.754Z,58.58
2023-03-02T02:06:29.186Z,58.47
2023-03-02T02:07:39.998Z,58.42
2023-03-02T02:08:49.789Z,58.27
2023-03-02T02:09:59.996Z,58.13
2023-03-02T02:11:09.854Z,58.24
2023-03-02T02:13:37.608Z,58.20
2023-03-02T02:14:48.193Z,58.40
2023-03-02T02:15:57.527Z,58.71
2023-03-02T02:18:21.664Z,58.42
2023-03-02T02:21:06.506Z,58.43
2023-03-02T02:22:17.740Z,58.43
2023-03-02T02:23:36.534Z,58.84
2023-03-02T02:24:49.406Z,58.80
2023-03-02T02:26:06.952Z,59.09
2023-03-02T02:27:15.868Z,58.81
2023-03-02T02:28:47.694Z,58.84
2023-03-02T02:29:58.493Z,58.87
2023-03-02T02:31:17.980Z,59.00
2023-03-02T02:32:33.121Z,58.98
2023-03-02T02:33:45.819Z,58.64
2023-03-02T02:35:02.056Z,58.70
2023-03-02T02:36:18.630Z,58.79
2023-03-02T02:37:47.094Z,58.96
2023-03-02T02:38:59.653Z,58.87
2023-03-02T02:41:32.525Z,58.82
2023-03-02T02:42:46.993Z,58.68
2023-03-02T02:43:57.011Z,58.58
2023-03-02T02:45:10.403Z,58.58
2023-03-02T02:46:20.345Z,58.61
2023-03-02T02:47:30.313Z,58.50
2023-03-02T02:48:40.461Z,58.73
2023-03-02T02:51:12.792Z,59.06
2023-03-02T02:52:26.477Z,58.78
2023-03-02T02:54:58.827Z,58.88
2023-03-02T02:56:09.868Z,59.05
2023-03-02T02:57:21.093Z,58.89
2023-03-02T02:59:59.878Z,59.27
2023-03-02T03:02:30.848Z,59.36
2023-03-02T03:03:44.759Z,59.45
2023-03-02T03:05:00.211Z,59.50
2023-03-02T03:07:30.779Z,59.22
2023-03-02T03:08:48.686Z,58.97
2023-03-02T03:10:15.489Z,59.27
2023-03-02T03:11:28.526Z,59.25
2023-03-02T03:12:40.386Z,59.33
2023-03-02T03:13:53.892Z,59.14
2023-03-02T03:15:04.776Z,59.12
2023-03-02T03:16:17.566Z,58.84
2023-03-02T03:17:26.141Z,58.96
2023-03-02T03:18:39.054Z,58.83
2023-03-02T03:19:48.097Z,59.03
2023-03-02T03:20:58.830Z,59.04
2023-03-02T03:22:11.474Z,58.81
2023-03-02T03:23:21.431Z,59.00
2023-03-02T03:24:33.549Z,59.14
2023-03-02T03:25:43.355Z,59.34
2023-03-02T03:26:57.247Z,59.28
2023-03-02T03:28:07.334Z,59.30
2023-03-02T03:29:22.350Z,59.27
2023-03-02T03:30:31.023Z,59.04
2023-03-02T03:31:41.212Z,58.87
2023-03-02T03:32:51.140Z,58.71
2023-03-02T03:34:01.318Z,59.04
2023-03-02T03:35:12.377Z,59.17
2023-03-02T03:36:22.942Z,59.19
2023-03-02T03:37:32.895Z,59.08
2023-03-02T03:38:43.699Z,58.93
2023-03-02T03:39:53.409Z,59.21
2023-03-02T03:42:18.646Z,59.04
2023-03-02T03:43:31.453Z,58.89
2023-03-02T03:44:41.922Z,58.95
2023-03-02T03:45:52.591Z,58.96
2023-03-02T03:47:02.438Z,58.83
2023-03-02T03:48:11.718Z,58.83
2023-03-02T03:49:21.474Z,58.74
2023-03-02T03:50:31.436Z,58.61
2023-03-02T03:51:41.563Z,58.81
2023-03-02T03:52:51.696Z,59.08
2023-03-02T03:54:05.634Z,58.93
2023-03-02T03:56:35.489Z,58.85
2023-03-02T03:57:45.457Z,59.08
2023-03-02T03:58:57.355Z,58.77
2023-03-02T04:00:09.954Z,58.90
2023-03-02T04:01:22.504Z,58.91
2023-03-02T04:02:32.522Z,58.87
2023-03-02T04:03:41.238Z,58.92
2023-03-02T04:04:51.121Z,58.84
2023-03-02T04:07:16.777Z,59.00
2023-03-02T04:08:27.192Z,59.00
2023-03-02T04:09:37.949Z,59.03
2023-03-02T04:10:50.994Z,59.19
2023-03-02T04:12:00.570Z,59.03
2023-03-02T04:13:11.748Z,59.06
2023-03-02T04:14:23.553Z,59.07
2023-03-02T04:15:33.336Z,59.12
2023-03-02T04:16:43.251Z,59.19
2023-03-02T04:17:53.371Z,58.99
2023-03-02T04:19:07.004Z,59.06
2023-03-02T04:20:19.941Z,59.05
2023-03-02T04:21:30.451Z,59.08
2023-03-02T04:22:39.387Z,58.96
2023-03-02T04:23:48.480Z,58.95
2023-03-02T04:24:57.089Z,59.17
2023-03-02T04:26:06.958Z,59.32
2023-03-02T04:27:17.826Z,59.30
2023-03-02T04:28:26.861Z,59.34
2023-03-02T04:29:38.598Z,59.67
2023-03-02T04:30:49.180Z,59.78
2023-03-02T04:31:59.177Z,59.86
2023-03-02T04:33:10.187Z,59.76
2023-03-02T04:34:19.425Z,59.93
2023-03-02T04:35:29.606Z,59.98
2023-03-02T04:36:40.066Z,59.99
2023-03-02T04:37:51.578Z,60.07
2023-03-02T04:39:00.979Z,59.87
2023-03-02T04:40:13.190Z,59.83
2023-03-02T04:42:39.865Z,60.33
2023-03-02T04:43:49.868Z,60.34
2023-03-02T04:45:00.826Z,60.20
2023-03-02T04:46:14.477Z,60.32
2023-03-02T04:47:24.718Z,60.38
2023-03-02T04:48:34.858Z,60.37
2023-03-02T04:49:44.571Z,60.33
2023-03-02T04:50:53.522Z,60.78
2023-03-02T04:52:02.654Z,60.97
2023-03-02T04:53:12.684Z,61.05
2023-03-02T04:54:26.083Z,60.81
2023-03-02T04:55:36.875Z,60.44
2023-03-02T04:56:48.358Z,59.61
2023-03-02T04:57:57.992Z,59.77
2023-03-02T04:59:08.520Z,59.31
2023-03-02T05:00:20.843Z,57.84
2023-03-02T05:01:29.997Z,57.52
2023-03-02T05:02:40.954Z,57.05
2023-03-02T05:03:51.479Z,56.62
2023-03-02T05:05:01.045Z,55.61
2023-03-02T05:06:10.338Z,54.28
2023-03-02T05:07:19.849Z,54.26
2023-03-02T05:09:44.219Z,51.85
2023-03-02T05:10:53.647Z,50.70
2023-03-02T05:12:03.152Z,51.58
2023-03-02T05:13:11.550Z,49.72
2023-03-02T05:14:20.518Z,49.09
2023-03-02T05:15:38.319Z,49.90
2023-03-02T05:16:49.887Z,49.15
2023-03-02T05:18:00.713Z,47.65
2023-03-02T05:19:10.864Z,47.47
2023-03-02T05:20:23.408Z,46.47
2023-03-02T05:21:32.068Z,46.59
2023-03-02T05:22:40.708Z,45.54
2023-03-02T05:23:50.188Z,44.52
2023-03-02T05:24:58.628Z,43.97
2023-03-02T05:26:08.402Z,43.81
2023-03-02T05:27:17.925Z,45.39
2023-03-02T05:28:28.146Z,43.18
2023-03-02T05:29:38.187Z,42.65
2023-03-02T05:30:47.942Z,41.14
2023-03-02T05:31:57.725Z,41.67
2023-03-02T05:33:07.553Z,41.08
2023-03-02T05:34:18.398Z,41.43
2023-03-02T05:35:27.195Z,39.44
2023-03-02T05:36:36.561Z,39.04
2023-03-02T05:37:45.928Z,39.98
2023-03-02T05:38:56.385Z,40.45
2023-03-02T05:40:06.892Z,39.71
2023-03-02T05:41:17.510Z,39.83
2023-03-02T05:42:26.461Z,39.47
2023-03-02T05:43:36.745Z,40.02
2023-03-02T05:46:00.036Z,40.29
2023-03-02T05:47:09.618Z,40.39
2023-03-02T05:48:19.023Z,40.45
2023-03-02T05:49:27.855Z,40.29
2023-03-02T05:50:38.424Z,41.52
2023-03-02T05:51:46.993Z,41.97
2023-03-02T05:52:58.816Z,41.57
2023-03-02T05:54:07.711Z,41.55
2023-03-02T05:55:17.444Z,41.85
2023-03-02T05:56:26.462Z,42.65
2023-03-02T05:57:35.373Z,42.90
2023-03-02T05:58:44.101Z,42.76
2023-03-02T05:59:52.864Z,42.87
2023-03-02T06:01:04.798Z,42.83
2023-03-02T06:02:14.364Z,43.07
2023-03-02T06:03:23.077Z,43.02
2023-03-02T06:04:32.883Z,43.24
2023-03-02T06:05:41.506Z,43.25
2023-03-02T06:06:50.731Z,42.97
2023-03-02T06:07:59.340Z,43.09
2023-03-02T06:09:08.232Z,43.45
2023-03-02T06:10:18.579Z,43.59
2023-03-02T06:11:28.177Z,43.56
2023-03-02T06:12:37.314Z,43.52
2023-03-02T06:13:46.430Z,43.83
2023-03-02T06:14:56.102Z,43.91
2023-03-02T06:17:20.580Z,45.02
2023-03-02T06:18:29.320Z,44.07
2023-03-02T06:19:38.135Z,44.19
2023-03-02T06:20:47.282Z,44.13
2023-03-02T06:21:56.849Z,44.22
2023-03-02T06:23:06.442Z,43.79
2023-03-02T06:24:15.537Z,43.73
2023-03-02T06:25:25.549Z,44.54
2023-03-02T06:26:34.973Z,44.12
2023-03-02T06:27:45.007Z,44.07
2023-03-02T06:28:54.195Z,44.39
2023-03-02T06:31:20.029Z,45.36
2023-03-02T06:32:32.569Z,45.15
2023-03-02T06:33:41.762Z,45.52
2023-03-02T06:36:06.372Z,45.14
2023-03-02T06:37:16.102Z,45.43
2023-03-02T06:38:25.319Z,45.26
2023-03-02T06:39:35.152Z,45.35
2023-03-02T06:40:44.680Z,45.27
2023-03-02T06:43:10.403Z,45.85
2023-03-02T06:44:18.951Z,46.13
2023-03-02T06:46:45.947Z,46.34
2023-03-02T06:47:55.109Z,46.86
2023-03-02T06:49:04.273Z,46.62
2023-03-02T06:50:13.493Z,46.81
2023-03-02T06:51:22.290Z,46.87
2023-03-02T06:52:31.061Z,47.75
2023-03-02T06:53:39.631Z,47.59
2023-03-02T06:54:49.395Z,47.70
2023-03-02T06:55:57.903Z,47.70
2023-03-02T06:57:08.146Z,48.19
2023-03-02T06:58:17.002Z,48.25
2023-03-02T06:59:26.257Z,48.35
2023-03-02T07:00:34.915Z,48.44
2023-03-02T07:01:43.999Z,48.39
2023-03-02T07:02:53.294Z,48.68
2023-03-02T07:04:02.991Z,48.73
2023-03-02T07:05:12.660Z,48.65
2023-03-02T07:06:21.841Z,48.62
2023-03-02T07:08:46.798Z,48.94
2023-03-02T07:09:56.283Z,49.23
2023-03-02T07:11:10.898Z,48.90
2023-03-02T07:12:19.964Z,49.08
2023-03-02T07:14:45.327Z,49.12
2023-03-02T07:15:55.553Z,49.30
2023-03-02T07:17:07.254Z,49.38
2023-03-02T07:18:16.354Z,49.40
2023-03-02T07:19:25.103Z,49.07
2023-03-02T07:20:34.100Z,49.31
2023-03-02T07:21:42.619Z,49.43
2023-03-02T07:22:53.198Z,49.23
2023-03-02T07:24:01.637Z,49.33
2023-03-02T07:25:10.987Z,49.35
2023-03-02T07:26:20.899Z,49.26
2023-03-02T07:27:29.988Z,49.25
2023-03-02T07:28:41.757Z,49.50
2023-03-02T07:29:50.569Z,49.68
2023-03-02T07:30:59.511Z,49.90
2023-03-02T07:32:12.467Z,49.76
2023-03-02T07:33:21.764Z,49.71
2023-03-02T07:34:31.608Z,49.73
2023-03-02T07:35:40.547Z,49.60
2023-03-02T07:36:49.585Z,49.65
2023-03-02T07:37:58.168Z,49.61
2023-03-02T07:39:07.784Z,49.57
2023-03-02T07:40:17.365Z,49.67
2023-03-02T07:41:25.877Z,49.91
2023-03-02T07:43:49.278Z,49.91
2023-03-02T07:44:59.040Z,49.92
2023-03-02T07:46:08.118Z,49.98
2023-03-02T07:47:16.651Z,49.75
2023-03-02T07:48:27.148Z,49.92
2023-03-02T07:49:36.121Z,49.96
2023-03-02T07:50:44.829Z,50.15
2023-03-02T07:51:54.232Z,50.80
2023-03-02T07:53:02.959Z,50.86
2023-03-02T07:54:11.824Z,50.74
2023-03-02T07:56:35.639Z,50.53
2023-03-02T07:57:44.071Z,50.56
2023-03-02T07:58:52.473Z,50.66
2023-03-02T08:00:02.820Z,50.43
2023-03-02T08:01:14.370Z,50.35
2023-03-02T08:02:25.967Z,50.49
2023-03-02T08:03:36.800Z,50.35
2023-03-02T08:04:45.513Z,50.33
2023-03-02T08:05:53.970Z,50.21
2023-03-02T08:07:02.734Z,50.50
2023-03-02T08:08:11.376Z,50.41
2023-03-02T08:09:20.502Z,50.26
2023-03-02T08:10:30.367Z,50.07
2023-03-02T08:11:39.178Z,49.95
2023-03-02T08:12:48.616Z,49.88
2023-03-02T08:14:02.131Z,49.71
2023-03-02T08:16:26.949Z,49.67
2023-03-02T08:18:50.809Z,49.47
2023-03-02T08:20:00.518Z,49.35
2023-03-02T08:21:15.509Z,49.54
2023-03-02T08:23:40.228Z,49.57
2023-03-02T08:24:48.782Z,49.66
2023-03-02T08:25:57.695Z,49.58
2023-03-02T08:27:06.854Z,49.88
2023-03-02T08:28:15.765Z,50.33
2023-03-02T08:29:24.305Z,50.35
2023-03-02T08:30:34.407Z,50.41
2023-03-02T08:32:57.853Z,50.07
2023-03-02T08:34:07.639Z,49.85
2023-03-02T08:35:16.864Z,49.84
2023-03-02T08:36:25.644Z,49.92
2023-03-02T08:37:36.790Z,49.82
2023-03-02T08:38:46.401Z,49.68
2023-03-02T08:39:57.915Z,49.74
2023-03-02T08:42:24.490Z,50.01
2023-03-02T08:43:34.756Z,49.62
2023-03-02T08:44:43.561Z,49.76
2023-03-02T08:45:58.865Z,49.85
2023-03-02T08:47:08.298Z,49.63
2023-03-02T08:48:16.920Z,49.57
2023-03-02T08:49:25.872Z,49.61
2023-03-02T08:50:34.630Z,49.44
2023-03-02T08:51:46.441Z,49.57
2023-03-02T08:52:54.851Z,49.75
2023-03-02T08:54:05.856Z,49.48
2023-03-02T08:55:14.568Z,49.50
2023-03-02T08:56:27.799Z,49.43
2023-03-02T08:59:13.373Z,49.16
2023-03-02T09:01:38.484Z,48.70
2023-03-02T09:04:04.155Z,48.31
2023-03-02T09:05:13.177Z,48.43
2023-03-02T09:07:36.650Z,48.43
2023-03-02T09:08:46.666Z,48.49
2023-03-02T09:11:11.315Z,48.68
2023-03-02T09:12:21.522Z,48.70
2023-03-02T09:13:30.757Z,48.60
2023-03-02T09:15:55.265Z,48.66
2023-03-02T09:17:05.432Z,48.91
2023-03-02T09:18:14.502Z,48.62
2023-03-02T09:19:24.175Z,48.77
2023-03-02T09:20:34.996Z,48.87
2023-03-02T09:21:43.320Z,48.58
2023-03-02T09:24:07.464Z,48.67
2023-03-02T09:26:34.939Z,48.11
2023-03-02T09:29:00.707Z,48.01
2023-03-02T09:31:27.929Z,48.09
2023-03-02T09:32:36.583Z,47.95
2023-03-02T09:33:45.846Z,47.82
2023-03-02T09:34:55.430Z,48.03
2023-03-02T09:36:11.906Z,47.80
2023-03-02T09:37:20.346Z,47.57
2023-03-02T09:38:29.024Z,47.74
2023-03-02T09:41:20.288Z,47.24
2023-03-02T09:42:49.842Z,47.33
2023-03-02T09:46:12.510Z,47.06
2023-03-02T09:49:14.154Z,47.21
2023-03-02T09:50:36.671Z,47.14
2023-03-02T09:51:49.059Z,47.56
2023-03-02T09:53:16.629Z,47.62
2023-03-02T09:54:27.652Z,47.28
2023-03-02T09:55:37.919Z,47.43
2023-03-02T09:56:50.335Z,47.70
2023-03-02T09:58:02.187Z,47.74
2023-03-02T10:00:39.944Z,47.58
2023-03-02T10:03:19.593Z,47.24
2023-03-02T10:05:54.103Z,46.27
2023-03-02T10:08:27.975Z,46.75
2023-03-02T10:09:37.913Z,46.71
2023-03-02T10:12:41.498Z,47.09
2023-03-02T10:13:59.935Z,46.96
2023-03-02T10:15:13.094Z,46.40
2023-03-02T10:16:38.586Z,46.59
2023-03-02T10:17:57.519Z,46.08
2023-03-02T10:20:44.217Z,46.23
2023-03-02T10:23:46.802Z,45.78
2023-03-02T10:25:18.047Z,45.49
2023-03-02T10:26:48.656Z,45.13
2023-03-02T10:29:33.530Z,45.25
2023-03-02T10:30:45.301Z,45.24
2023-03-02T10:33:22.085Z,45.38
2023-03-02T10:34:31.032Z,45.47
2023-03-02T10:36:58.452Z,45.24
2023-03-02T10:39:28.840Z,45.22
2023-03-02T10:42:07.101Z,45.41
2023-03-02T10:44:57.998Z,45.17
2023-03-02T10:47:28.822Z,44.96
2023-03-02T10:48:56.573Z,45.02
2023-03-02T10:51:37.447Z,45.06
2023-03-02T10:52:59.526Z,44.97
2023-03-02T10:54:14.664Z,44.99
2023-03-02T10:56:44.548Z,44.98
2023-03-02T10:59:44.729Z,44.91
2023-03-02T11:01:01.375Z,44.74
2023-03-02T11:03:37.436Z,44.14
2023-03-02T11:06:20.335Z,44.34
2023-03-02T11:07:30.293Z,44.05
2023-03-02T11:10:00.468Z,44.04
2023-03-02T11:11:24.356Z,44.01
2023-03-02T11:13:52.360Z,44.11
2023-03-02T11:15:29.480Z,44.04
2023-03-02T11:16:38.353Z,44.08
2023-03-02T11:17:50.919Z,44.07
2023-03-02T11:20:26.504Z,44.14
2023-03-02T11:21:50.780Z,44.28
2023-03-02T11:23:09.040Z,44.23
2023-03-02T11:24:33.975Z,44.25
2023-03-02T11:25:49.909Z,43.99
2023-03-02T11:28:36.507Z,43.54
2023-03-02T11:29:54.686Z,43.47
2023-03-02T11:31:08.573Z,43.37
2023-03-02T11:34:07.828Z,43.42
2023-03-02T11:35:28.363Z,43.21
2023-03-02T11:38:26.110Z,42.71
2023-03-02T11:41:15.458Z,43.22
2023-03-02T11:42:34.878Z,43.19
2023-03-02T11:43:43.515Z,42.87
2023-03-02T11:44:53.555Z,43.04
2023-03-02T11:46:13.992Z,42.97
2023-03-02T11:47:19.304Z,43.11
2023-03-02T11:48:34.562Z,42.97
2023-03-02T11:49:56.813Z,42.76
2023-03-02T11:52:34.268Z,42.77
2023-03-02T11:54:02.240Z,42.99
2023-03-02T11:55:19.852Z,43.02
2023-03-02T11:56:34.863Z,42.85
2023-03-02T11:59:08.742Z,42.88
2023-03-02T12:00:31.160Z,42.70
2023-03-02T12:01:41.406Z,42.38
2023-03-02T12:04:34.097Z,42.42
2023-03-02T12:08:24.168Z,42.29
2023-03-02T12:09:37.060Z,42.05
2023-03-02T12:11:01.039Z,42.36
2023-03-02T12:12:14.458Z,42.20
2023-03-02T12:13:34.489Z,42.18
2023-03-02T12:14:44.565Z,42.35
2023-03-02T12:15:55.168Z,42.17
2023-03-02T12:17:08.712Z,41.99
2023-03-02T12:18:24.892Z,41.93
2023-03-02T12:22:33.108Z,41.97
2023-03-02T12:23:54.656Z,42.23
2023-03-02T12:25:22.399Z,42.00
2023-03-02T12:27:53.316Z,42.06
2023-03-02T12:29:13.310Z,41.98
2023-03-02T12:30:26.651Z,42.03
2023-03-02T12:31:48.126Z,42.06
2023-03-02T12:34:39.013Z,42.24
2023-03-02T12:35:50.842Z,42.39
2023-03-02T12:37:03.469Z,42.48
2023-03-02T12:38:34.846Z,42.31
2023-03-02T12:41:38.546Z,42.56
2023-03-02T12:44:21.622Z,42.54
2023-03-02T12:47:03.782Z,42.58
2023-03-02T12:48:22.673Z,42.75
2023-03-02T12:49:52.438Z,42.71
2023-03-02T12:51:04.859Z,42.51
2023-03-02T12:52:32.386Z,41.99
2023-03-02T12:53:40.989Z,41.94
2023-03-02T12:55:05.864Z,41.88
2023-03-02T12:57:52.038Z,41.92
2023-03-02T12:59:00.484Z,41.81
2023-03-02T13:00:12.955Z,41.91
2023-03-02T13:01:25.368Z,41.76
2023-03-02T13:02:36.793Z,41.51
2023-03-02T13:03:47.660Z,41.75
2023-03-02T13:05:02.491Z,41.58
2023-03-02T13:06:18.301Z,41.77
2023-03-02T13:07:31.544Z,41.64
2023-03-02T13:08:43.782Z,41.37
2023-03-02T13:09:56.880Z,41.13
2023-03-02T13:11:07.018Z,40.93
2023-03-02T13:12:16.652Z,40.76
2023-03-02T13:13:39.510Z,40.78
2023-03-02T13:14:54.770Z,40.80
2023-03-02T13:16:07.806Z,40.51
2023-03-02T13:18:43.410Z,39.74
2023-03-02T13:19:52.822Z,39.82
2023-03-02T13:22:21.566Z,40.22
2023-03-02T13:23:32.932Z,39.95
2023-03-02T13:24:51.176Z,40.03
2023-03-02T13:26:04.657Z,40.17
2023-03-02T13:27:21.754Z,40.06
2023-03-02T13:28:37.382Z,40.43
2023-03-02T13:29:46.633Z,40.50
2023-03-02T13:32:28.151Z,40.48
2023-03-02T13:34:59.049Z,40.35
2023-03-02T13:37:41.593Z,40.17
2023-03-02T13:38:53.786Z,40.24
2023-03-02T13:40:06.732Z,39.94
2023-03-02T13:41:29.336Z,40.05
2023-03-02T13:42:41.159Z,40.05
2023-03-02T13:43:50.414Z,40.29
2023-03-02T13:45:20.529Z,40.16
2023-03-02T13:47:51.158Z,39.83
2023-03-02T13:49:10.090Z,40.12
2023-03-02T13:50:22.748Z,40.16
2023-03-02T13:51:44.095Z,40.16
2023-03-02T13:52:57.125Z,40.12
2023-03-02T13:55:41.158Z,40.03
2023-03-02T13:58:11.845Z,40.18
2023-03-02T13:59:23.045Z,40.28
2023-03-02T14:00:35.576Z,40.29
2023-03-02T14:01:44.852Z,40.30
2023-03-02T14:02:53.427Z,40.39
2023-03-02T14:04:03.763Z,40.24
2023-03-02T14:06:37.159Z,40.14
2023-03-02T14:07:46.730Z,40.25
2023-03-02T14:08:55.400Z,40.06
2023-03-02T14:10:05.880Z,39.91
2023-03-02T14:11:17.050Z,40.06
2023-03-02T14:12:28.854Z,39.95
2023-03-02T14:13:48.177Z,40.13
2023-03-02T14:15:00.235Z,40.11
2023-03-02T14:16:18.466Z,40.09
2023-03-02T14:17:27.665Z,40.09
2023-03-02T14:18:43.476Z,40.11
2023-03-02T14:19:53.277Z,39.93
2023-03-02T14:21:02.602Z,40.09
2023-03-02T14:22:12.437Z,39.78
2023-03-02T14:23:21.594Z,39.85
2023-03-02T14:25:46.768Z,39.44
2023-03-02T14:26:55.527Z,39.60
2023-03-02T14:28:05.750Z,39.30
2023-03-02T14:29:24.766Z,39.22
2023-03-02T14:30:34.192Z,39.49
2023-03-02T14:31:44.068Z,39.45
2023-03-02T14:32:52.862Z,39.63
2023-03-02T14:34:02.705Z,39.68
2023-03-02T14:35:13.866Z,39.69
2023-03-02T14:36:29.523Z,39.86
2023-03-02T14:37:41.555Z,39.89
2023-03-02T14:38:50.222Z,39.96
2023-03-02T14:39:59.399Z,40.06
2023-03-02T14:42:30.253Z,40.15
2023-03-02T14:43:39.049Z,40.16
2023-03-02T14:44:51.529Z,40.19
2023-03-02T14:46:01.214Z,40.31
2023-03-02T14:47:10.383Z,40.32
2023-03-02T14:48:19.349Z,40.43
2023-03-02T14:49:28.570Z,40.33
2023-03-02T14:50:41.343Z,40.36
2023-03-02T14:52:27.971Z,40.38
2023-03-02T14:56:24.468Z,40.47
2023-03-02T14:57:36.314Z,40.55
2023-03-02T15:00:01.026Z,40.39
2023-03-02T15:01:11.853Z,40.44
2023-03-02T15:02:25.817Z,40.40
2023-03-02T15:04:47.408Z,40.64
2023-03-02T15:06:01.266Z,40.38
2023-03-02T15:08:27.807Z,40.56
2023-03-02T15:09:37.665Z,40.63
2023-03-02T15:10:49.202Z,40.67
2023-03-02T15:11:57.879Z,40.60
2023-03-02T15:13:07.230Z,40.49
2023-03-02T15:14:16.394Z,40.49
2023-03-02T15:15:26.918Z,40.65
2023-03-02T15:16:36.591Z,40.82
2023-03-02T15:17:45.788Z,40.82
2023-03-02T15:18:56.383Z,40.72
2023-03-02T15:20:07.585Z,40.74
2023-03-02T15:21:22.113Z,40.71
2023-03-02T15:22:31.513Z,40.78
2023-03-02T15:23:40.176Z,40.61
2023-03-02T15:26:04.169Z,40.73
2023-03-02T15:27:12.641Z,40.76
2023-03-02T15:29:36.105Z,40.70
2023-03-02T15:32:02.653Z,40.77
2023-03-02T15:33:11.476Z,40.88
2023-03-02T15:34:20.291Z,40.85
2023-03-02T15:35:29.756Z,40.75
2023-03-02T15:36:39.392Z,40.81
2023-03-02T15:37:48.454Z,40.84
2023-03-02T15:38:57.468Z,40.88
2023-03-02T15:41:25.429Z,40.93
2023-03-02T15:42:34.186Z,41.00
2023-03-02T15:43:45.312Z,41.11
2023-03-02T15:44:54.501Z,41.08
2023-03-02T15:46:06.369Z,41.04
2023-03-02T15:47:15.329Z,40.94
2023-03-02T15:48:24.981Z,40.98
2023-03-02T15:49:33.676Z,41.12
2023-03-02T15:50:42.797Z,41.20
2023-03-02T15:51:52.512Z,41.18
2023-03-02T15:53:01.039Z,41.23
2023-03-02T15:54:11.212Z,41.24
2023-03-02T15:55:19.889Z,41.24
2023-03-02T15:56:35.775Z,41.28
2023-03-02T15:57:41.136Z,41.35
2023-03-02T15:58:50.223Z,41.28
2023-03-02T15:59:59.496Z,41.42
2023-03-02T16:01:11.013Z,41.37
2023-03-02T16:02:19.653Z,41.40
2023-03-02T16:03:29.387Z,41.40
2023-03-02T16:04:38.595Z,41.54
2023-03-02T16:05:48.092Z,41.49
2023-03-02T16:06:59.273Z,41.49
2023-03-02T16:08:08.483Z,41.59
2023-03-02T16:09:18.477Z,41.62
2023-03-02T16:10:30.043Z,41.70
2023-03-02T16:11:39.048Z,41.70
2023-03-02T16:12:48.529Z,41.76
2023-03-02T16:15:12.788Z,41.81
2023-03-02T16:16:23.259Z,41.76
2023-03-02T16:17:32.133Z,41.90
2023-03-02T16:18:42.903Z,41.87
2023-03-02T16:19:51.795Z,41.93
2023-03-02T16:21:02.741Z,41.90
2023-03-02T16:22:11.379Z,42.02
2023-03-02T16:23:20.685Z,41.95
2023-03-02T16:24:30.586Z,41.97
2023-03-02T16:25:43.173Z,42.09
2023-03-02T16:26:52.763Z,42.08
2023-03-02T16:28:03.994Z,42.18
2023-03-02T16:29:13.862Z,42.22
2023-03-02T16:30:23.497Z,42.27
2023-03-02T16:31:34.664Z,42.46
2023-03-02T16:32:43.668Z,42.83
2023-03-02T16:33:55.584Z,42.97
2023-03-02T16:35:05.621Z,43.21
2023-03-02T16:36:16.250Z,43.36
2023-03-02T16:37:26.944Z,43.51
2023-03-02T16:38:38.282Z,43.65
2023-03-02T17:41:47.761Z,54.47
2023-03-02T17:42:57.805Z,54.41
2023-03-02T17:45:25.481Z,54.23
2023-03-02T17:46:34.402Z,54.42
2023-03-02T17:49:00.686Z,54.50
2023-03-02T17:50:11.814Z,54.47
2023-03-02T17:51:23.572Z,54.49
2023-03-02T17:52:32.810Z,54.51
2023-03-02T17:54:59.541Z,54.68
2023-03-02T17:56:09.188Z,54.61
2023-03-02T17:57:19.736Z,54.61
2023-03-02T17:59:45.122Z,55.07
2023-03-02T18:00:54.357Z,55.12
2023-03-02T18:02:03.101Z,55.30
2023-03-02T18:03:12.990Z,55.54
2023-03-02T18:04:22.462Z,55.61
2023-03-02T18:05:31.198Z,55.56
2023-03-02T18:06:41.043Z,55.55
2023-03-02T18:07:51.979Z,55.72
2023-03-02T18:10:16.908Z,56.15
2023-03-02T18:13:01.139Z,56.12
2023-03-02T18:14:16.765Z,56.10
2023-03-02T18:15:27.282Z,56.05
2023-03-02T18:16:36.107Z,56.04
2023-03-02T18:17:44.933Z,56.21
2023-03-02T18:18:54.195Z,56.28
2023-03-02T18:21:20.523Z,56.40
2023-03-02T18:23:49.505Z,56.43
2023-03-02T18:26:15.264Z,56.71
2023-03-02T18:27:24.765Z,56.85
2023-03-02T18:28:34.729Z,56.99
2023-03-02T18:29:44.307Z,57.50
2023-03-02T18:30:53.120Z,57.67
2023-03-02T18:33:16.775Z,57.70
2023-03-02T18:34:25.475Z,57.70
2023-03-02T18:35:35.081Z,57.72
2023-03-02T18:36:43.710Z,57.49
2023-03-02T18:37:52.453Z,57.32
2023-03-02T18:40:18.713Z,57.48
2023-03-02T18:41:27.696Z,57.38
2023-03-02T18:42:36.993Z,57.52
2023-03-02T18:43:48.638Z,57.58
2023-03-02T18:47:36.072Z,57.57
2023-03-02T18:48:44.600Z,57.74
2023-03-02T18:49:53.534Z,57.77
2023-03-02T18:52:18.622Z,57.85
2023-03-02T18:54:46.726Z,57.89
2023-03-02T18:55:56.254Z,58.13
2023-03-02T18:57:10.382Z,58.11
2023-03-02T18:58:23.427Z,58.09
2023-03-02T19:00:48.254Z,58.34
2023-03-02T19:01:56.946Z,58.36
2023-03-02T19:04:26.011Z,58.81
2023-03-02T19:05:35.214Z,59.05
2023-03-02T19:06:44.102Z,58.85
2023-03-02T19:09:12.010Z,58.71
2023-03-02T19:10:23.001Z,58.78
2023-03-02T19:11:31.618Z,58.59
2023-03-02T19:12:41.077Z,58.67
2023-03-02T19:13:50.223Z,58.77
2023-03-02T19:14:58.738Z,58.93
2023-03-02T19:16:08.093Z,58.77
2023-03-02T19:18:37.239Z,58.77
2023-03-02T19:19:45.996Z,58.81
2023-03-02T19:20:55.224Z,58.72